createdAt,value
2017-11-14T00:02:32.254Z,2.63
2017-11-14T00:05:04.787Z,4.20
2017-11-14T00:07:37.353Z,2.87
2017-11-14T00:10:09.875Z,5.07
2017-11-14T00:12:43.207Z,6.13
2017-11-14T00:15:15.834Z,2.70
2017-11-14T00:17:49.260Z,4.70
2017-11-14T00:20:21.853Z,10.67
2017-11-14T00:22:54.435Z,4.27
2017-11-14T00:25:26.981Z,4.23
2017-11-14T00:27:59.523Z,5.53
2017-11-14T00:30:32.051Z,3.00
2017-11-14T00:33:04.594Z,5.73
2017-11-14T00:35:37.897Z,5.40
2017-11-14T00:38:10.457Z,8.40
2017-11-14T00:40:43.758Z,5.00
2017-11-14T00:43:17.109Z,5.43
2017-11-14T00:45:49.740Z,6.43
2017-11-14T00:48:22.346Z,6.67
2017-11-14T00:50:54.885Z,8.20
2017-11-14T00:53:27.456Z,3.37
2017-11-14T00:55:59.999Z,3.57
2017-11-14T00:58:32.554Z,3.03
2017-11-14T01:01:05.098Z,3.73
2017-11-14T01:03:37.658Z,4.57
2017-11-14T01:06:10.963Z,5.20
2017-11-14T01:08:43.547Z,5.20
2017-11-14T01:11:16.078Z,4.87
2017-11-14T01:13:48.670Z,4.33
2017-11-14T01:16:21.240Z,5.77
2017-11-14T01:18:53.823Z,7.60
2017-11-14T01:21:26.376Z,4.60
2017-11-14T01:23:58.947Z,4.40
2017-11-14T01:26:31.468Z,6.00
2017-11-14T01:29:04.063Z,5.67
2017-11-14T01:31:36.586Z,5.47
2017-11-14T01:34:09.138Z,3.83
2017-11-14T01:36:41.670Z,7.60
2017-11-14T01:39:15.049Z,4.77
2017-11-14T01:41:47.625Z,6.97
2017-11-14T01:44:20.432Z,5.63
2017-11-14T01:46:53.016Z,7.90
2017-11-14T01:49:25.646Z,5.27
2017-11-14T01:51:58.188Z,4.40
2017-11-14T01:54:30.721Z,8.13
2017-11-14T01:57:04.021Z,5.03
2017-11-14T01:59:36.607Z,4.57
2017-11-14T02:02:10.230Z,5.60
2017-11-14T02:04:42.799Z,4.13
2017-11-14T02:07:15.345Z,6.70
2017-11-14T02:09:48.697Z,6.00
2017-11-14T02:12:21.339Z,7.30
2017-11-14T02:14:53.948Z,6.37
2017-11-14T02:17:26.530Z,7.57
2017-11-14T02:19:59.880Z,5.13
2017-11-14T02:22:32.417Z,5.10
2017-11-14T02:25:04.970Z,8.03
2017-11-14T02:27:37.491Z,7.67
2017-11-14T02:30:10.838Z,6.07
2017-11-14T02:32:43.379Z,8.40
2017-11-14T02:35:16.121Z,9.57
2017-11-14T02:37:48.792Z,6.30
2017-11-14T02:40:21.478Z,8.20
2017-11-14T02:42:54.044Z,8.40
2017-11-14T02:45:26.597Z,8.90
2017-11-14T02:47:59.126Z,9.23
2017-11-14T02:50:32.445Z,6.27
2017-11-14T02:53:04.978Z,6.10
2017-11-14T02:55:37.539Z,9.13
2017-11-14T02:58:10.049Z,5.53
2017-11-14T03:00:43.369Z,7.17
2017-11-14T03:03:16.379Z,7.00
2017-11-14T03:05:49.913Z,6.60
2017-11-14T03:08:22.467Z,5.00
2017-11-14T03:10:55.095Z,5.80
2017-11-14T03:13:27.652Z,4.83
2017-11-14T03:16:00.243Z,6.83
2017-11-14T03:18:33.547Z,7.53
2017-11-14T03:21:06.112Z,6.07
2017-11-14T03:23:39.407Z,7.30
2017-11-14T03:26:12.727Z,8.50
2017-11-14T03:28:45.293Z,4.97
2017-11-14T03:31:17.934Z,5.03
2017-11-14T03:33:50.557Z,5.17
2017-11-14T03:36:23.191Z,5.70
2017-11-14T03:38:55.769Z,5.43
2017-11-14T03:41:29.109Z,4.77
2017-11-14T03:44:01.652Z,5.20
2017-11-14T03:46:34.985Z,7.97
2017-11-14T03:49:07.515Z,5.77
2017-11-14T03:51:40.822Z,5.13
2017-11-14T03:54:14.111Z,7.83
2017-11-14T03:56:47.464Z,6.87
2017-11-14T03:59:20.006Z,5.20
2017-11-14T04:01:52.540Z,6.93
2017-11-14T04:04:25.134Z,7.40
2017-11-14T04:06:57.709Z,8.77
2017-11-14T04:09:30.288Z,10.10
2017-11-14T04:12:03.677Z,6.97
2017-11-14T04:14:37.010Z,5.43
2017-11-14T04:17:09.563Z,9.47
2017-11-14T04:19:42.889Z,7.23
2017-11-14T04:22:15.440Z,8.53
2017-11-14T04:24:47.979Z,8.00
2017-11-14T04:27:20.518Z,6.93
2017-11-14T04:29:53.062Z,10.80
2017-11-14T04:32:25.679Z,7.50
2017-11-14T04:34:58.345Z,9.40
2017-11-14T04:37:30.962Z,7.93
2017-11-14T04:40:06.235Z,12.33
2017-11-14T04:42:38.912Z,9.33
2017-11-14T04:45:11.482Z,13.73
2017-11-14T04:47:44.799Z,13.47
2017-11-14T04:50:17.331Z,14.40
2017-11-14T04:52:49.891Z,19.37
2017-11-14T04:55:22.415Z,15.20
2017-11-14T04:57:55.038Z,16.20
2017-11-14T05:00:27.630Z,16.17
2017-11-14T05:03:00.200Z,19.30
2017-11-14T05:05:33.518Z,21.20
2017-11-14T05:08:06.116Z,18.43
2017-11-14T05:10:38.660Z,14.77
2017-11-14T05:13:11.216Z,17.80
2017-11-14T05:15:43.758Z,20.63
2017-11-14T05:18:16.331Z,20.13
2017-11-14T05:20:48.860Z,17.23
2017-11-14T05:23:22.197Z,21.17
2017-11-14T05:25:54.759Z,14.50
2017-11-14T05:28:28.240Z,19.73
2017-11-14T05:31:01.638Z,16.27
2017-11-14T05:33:34.984Z,16.67
2017-11-14T05:36:07.541Z,19.63
2017-11-14T05:38:40.117Z,22.60
2017-11-14T05:41:12.648Z,15.47
2017-11-14T05:43:45.213Z,17.77
2017-11-14T05:46:17.766Z,18.90
2017-11-14T05:48:50.320Z,17.13
2017-11-14T05:51:22.847Z,19.93
2017-11-14T05:53:58.957Z,15.30
2017-11-14T05:56:31.632Z,18.53
2017-11-14T05:59:04.325Z,14.20
2017-11-14T06:01:37.014Z,21.23
2017-11-14T06:04:09.617Z,19.70
2017-11-14T06:06:42.242Z,14.63
2017-11-14T06:09:14.824Z,20.00
2017-11-14T06:11:47.358Z,27.07
2017-11-14T06:14:19.955Z,16.57
2017-11-14T06:16:52.553Z,17.53
2017-11-14T06:19:25.948Z,21.10
2017-11-14T06:21:58.704Z,14.70
2017-11-14T06:24:32.300Z,14.13
2017-11-14T06:27:05.727Z,20.93
2017-11-14T06:29:38.584Z,13.50
2017-11-14T06:32:11.147Z,20.00
2017-11-14T06:34:43.695Z,15.10
2017-11-14T06:37:16.250Z,17.43
2017-11-14T06:39:48.807Z,16.90
2017-11-14T06:42:21.333Z,18.43
2017-11-14T06:44:53.931Z,18.90
2017-11-14T06:47:26.739Z,19.10
2017-11-14T06:49:59.731Z,22.00
2017-11-14T06:52:32.497Z,24.70
2017-11-14T06:55:05.253Z,20.27
2017-11-14T06:57:38.002Z,18.33
2017-11-14T07:00:10.772Z,17.13
2017-11-14T07:02:43.347Z,22.53
2017-11-14T07:05:15.903Z,17.67
2017-11-14T07:07:48.423Z,18.97
2017-11-14T07:10:21.013Z,20.10
2017-11-14T07:12:53.557Z,15.97
2017-11-14T07:15:27.605Z,13.70
2017-11-14T07:18:00.990Z,14.80
2017-11-14T07:20:33.728Z,16.57
2017-11-14T07:23:06.292Z,16.50
2017-11-14T07:25:38.986Z,17.40
2017-11-14T07:28:11.603Z,13.57
2017-11-14T07:30:44.150Z,14.60
2017-11-14T07:33:16.678Z,11.57
2017-11-14T07:35:49.983Z,15.30
2017-11-14T07:38:23.266Z,15.23
2017-11-14T07:40:56.961Z,18.07
2017-11-14T07:43:29.794Z,13.37
2017-11-14T07:46:02.417Z,15.37
2017-11-14T07:48:35.093Z,18.27
2017-11-14T07:51:07.773Z,15.90
2017-11-14T07:53:40.526Z,18.53
2017-11-14T07:56:13.610Z,20.20
2017-11-14T07:58:46.133Z,17.73
2017-11-14T08:01:19.432Z,16.70
2017-11-14T08:03:52.715Z,14.80
2017-11-14T08:06:26.538Z,20.13
2017-11-14T08:08:59.536Z,21.27
2017-11-14T08:11:32.272Z,21.90
2017-11-14T08:14:05.866Z,21.13
2017-11-14T08:16:38.607Z,22.17
2017-11-14T08:19:11.310Z,24.03
2017-11-14T08:21:43.879Z,27.70
2017-11-14T08:24:16.398Z,23.87
2017-11-14T08:26:49.705Z,28.07
2017-11-14T08:29:22.241Z,21.03
2017-11-14T08:31:55.775Z,24.37
2017-11-14T08:34:31.921Z,22.83
2017-11-14T08:37:05.374Z,29.17
2017-11-14T08:39:38.158Z,28.60
2017-11-14T08:42:10.830Z,28.20
2017-11-14T08:44:43.355Z,30.43
2017-11-14T08:47:15.917Z,23.37
2017-11-14T08:49:48.474Z,23.20
2017-11-14T08:52:21.022Z,28.33
2017-11-14T08:54:53.540Z,23.73
2017-11-14T08:57:26.608Z,24.10
2017-11-14T09:00:01.430Z,22.87
2017-11-14T09:02:34.019Z,19.20
2017-11-14T09:05:06.767Z,23.20
2017-11-14T09:07:39.748Z,28.00
2017-11-14T09:10:12.278Z,20.80
2017-11-14T09:12:44.823Z,22.60
2017-11-14T09:15:17.346Z,22.80
2017-11-14T09:17:49.902Z,22.17
2017-11-14T09:20:22.433Z,24.20
2017-11-14T09:22:55.212Z,31.93
2017-11-14T09:25:27.843Z,23.43
2017-11-14T09:28:02.193Z,23.60
2017-11-14T09:30:35.532Z,25.17
2017-11-14T09:33:08.269Z,22.03
2017-11-14T09:35:41.000Z,25.13
2017-11-14T09:38:13.571Z,25.33
2017-11-14T09:40:46.095Z,23.83
2017-11-14T09:43:19.408Z,21.53
2017-11-14T09:45:51.968Z,22.90
2017-11-14T09:48:26.712Z,22.03
2017-11-14T09:50:59.372Z,22.73
2017-11-14T09:53:32.231Z,19.30
2017-11-14T09:56:05.645Z,21.97
2017-11-14T09:58:38.199Z,17.13
2017-11-14T10:01:10.735Z,21.10
2017-11-14T10:03:43.273Z,25.07
2017-11-14T10:06:17.873Z,25.33
2017-11-14T10:08:50.793Z,24.17
2017-11-14T10:11:23.396Z,30.70
2017-11-14T10:13:56.056Z,24.23
2017-11-14T10:16:28.641Z,25.57
2017-11-14T10:19:01.238Z,21.47
2017-11-14T10:21:33.768Z,25.07
2017-11-14T10:24:07.088Z,22.30
2017-11-14T10:26:39.614Z,21.13
2017-11-14T10:29:12.167Z,20.70
2017-11-14T10:31:44.694Z,17.07
2017-11-14T10:34:17.585Z,22.10
2017-11-14T10:36:50.522Z,20.53
2017-11-14T10:39:23.338Z,23.50
2017-11-14T10:41:56.706Z,25.13
2017-11-14T10:44:29.415Z,24.77
2017-11-14T10:47:02.703Z,18.67
2017-11-14T10:49:36.027Z,21.17
2017-11-14T10:52:08.546Z,23.13
2017-11-14T10:54:41.093Z,19.87
2017-11-14T10:57:13.666Z,18.80
2017-11-14T10:59:46.535Z,23.70
2017-11-14T11:02:19.317Z,24.63
2017-11-14T11:04:51.996Z,21.97
2017-11-14T11:07:24.558Z,18.90
2017-11-14T11:09:57.237Z,22.43
2017-11-14T11:12:30.736Z,19.10
2017-11-14T11:15:03.361Z,19.20
2017-11-14T11:17:35.874Z,18.13
2017-11-14T11:20:09.199Z,17.70
2017-11-14T11:22:41.714Z,18.77
2017-11-14T11:25:14.524Z,19.30
2017-11-14T11:27:48.283Z,17.63
2017-11-14T11:30:21.651Z,16.57
2017-11-14T11:32:54.230Z,18.20
2017-11-14T11:35:26.923Z,18.50
2017-11-14T11:37:59.559Z,15.23
2017-11-14T11:40:32.904Z,16.67
2017-11-14T11:43:06.042Z,17.47
2017-11-14T11:45:39.388Z,19.17
2017-11-14T11:48:11.919Z,12.80
2017-11-14T11:50:45.310Z,15.37
2017-11-14T11:53:18.088Z,14.43
2017-11-14T11:55:51.032Z,20.13
2017-11-14T11:58:23.783Z,15.23
2017-11-14T12:00:57.233Z,16.80
2017-11-14T12:03:29.809Z,16.87
2017-11-14T12:06:02.360Z,15.33
2017-11-14T12:08:34.882Z,18.17
2017-11-14T12:11:08.197Z,14.10
2017-11-14T12:13:40.722Z,19.47
2017-11-14T12:16:13.271Z,16.37
2017-11-14T12:18:48.393Z,15.90
2017-11-14T12:21:21.191Z,15.83
2017-11-14T12:23:53.786Z,17.67
2017-11-14T12:26:26.452Z,13.53
2017-11-14T12:28:59.777Z,11.97
2017-11-14T12:31:32.329Z,15.93
2017-11-14T12:34:04.843Z,15.53
2017-11-14T12:36:38.159Z,14.67
2017-11-14T12:39:10.676Z,13.47
2017-11-14T12:41:43.214Z,12.53
2017-11-14T12:44:16.507Z,15.90
2017-11-14T12:46:49.300Z,15.67
2017-11-14T12:49:22.385Z,18.27
2017-11-14T12:51:54.977Z,14.00
2017-11-14T12:54:27.600Z,11.57
2017-11-14T12:57:00.904Z,17.80
2017-11-14T12:59:34.186Z,14.47
2017-11-14T13:02:06.722Z,15.63
2017-11-14T13:04:39.245Z,15.93
2017-11-14T13:07:12.586Z,19.87
2017-11-14T13:09:45.141Z,15.10
2017-11-14T13:12:18.055Z,14.27
2017-11-14T13:14:51.372Z,14.60
2017-11-14T13:17:23.964Z,17.50
2017-11-14T13:19:56.568Z,14.67
2017-11-14T13:22:29.148Z,14.73
2017-11-14T13:25:01.688Z,17.20
2017-11-14T13:27:34.223Z,15.23
2017-11-14T13:30:06.749Z,18.57
2017-11-14T13:32:40.059Z,19.20
2017-11-14T13:35:13.410Z,14.53
2017-11-14T13:37:48.091Z,18.77
2017-11-14T13:40:20.713Z,16.30
2017-11-14T13:42:53.509Z,16.67
2017-11-14T13:45:26.895Z,17.37
2017-11-14T13:47:59.614Z,17.53
2017-11-14T13:50:32.903Z,14.10
2017-11-14T13:53:06.206Z,12.53
2017-11-14T13:55:38.722Z,14.20
2017-11-14T13:58:11.264Z,16.97
2017-11-14T14:00:43.814Z,14.50
2017-11-14T14:03:17.343Z,18.00
2017-11-14T14:05:50.085Z,15.57
2017-11-14T14:08:23.536Z,12.83
2017-11-14T14:10:56.111Z,16.67
2017-11-14T14:13:28.752Z,14.40
2017-11-14T14:16:02.051Z,17.63
2017-11-14T14:18:35.363Z,16.43
2017-11-14T14:21:07.887Z,12.03
2017-11-14T14:23:40.425Z,17.93
2017-11-14T14:26:12.947Z,14.07
2017-11-14T14:28:46.473Z,14.47
2017-11-14T14:31:20.111Z,17.30
2017-11-14T14:33:52.813Z,15.33
2017-11-14T14:36:25.412Z,13.23
2017-11-14T14:38:58.755Z,15.13
2017-11-14T14:41:31.293Z,18.90
2017-11-14T14:44:03.839Z,13.47
2017-11-14T14:46:36.371Z,16.80
2017-11-14T14:49:08.927Z,16.93
2017-11-14T14:51:42.247Z,19.67
2017-11-14T14:54:14.822Z,19.70
2017-11-14T14:56:47.662Z,13.97
2017-11-14T14:59:21.378Z,18.63
2017-11-14T15:01:53.982Z,15.47
2017-11-14T15:04:26.563Z,18.90
2017-11-14T15:06:59.122Z,24.57
2017-11-14T15:09:31.722Z,17.33
2017-11-14T15:12:04.270Z,21.73
2017-11-14T15:14:36.886Z,19.67
2017-11-14T15:17:09.424Z,24.30
2017-11-14T15:19:41.971Z,19.73
2017-11-14T15:22:14.541Z,25.20
2017-11-14T15:24:48.187Z,20.10
2017-11-14T15:27:20.867Z,29.43
2017-11-14T15:29:53.549Z,19.67
2017-11-14T15:32:26.187Z,22.37
2017-11-14T15:34:58.801Z,19.60
2017-11-14T15:37:31.338Z,20.20
2017-11-14T15:40:03.912Z,25.77
2017-11-14T15:45:15.559Z,21.33
2017-11-14T15:47:48.253Z,23.73
2017-11-14T15:50:21.109Z,22.00
2017-11-14T15:52:53.736Z,21.30
2017-11-14T15:55:26.332Z,24.63
2017-11-14T15:57:59.702Z,30.17
2017-11-14T16:00:32.254Z,28.37
2017-11-14T16:03:04.792Z,22.87
2017-11-14T16:05:38.090Z,26.23
2017-11-14T16:08:11.376Z,20.33
2017-11-14T16:10:44.707Z,34.80
2017-11-14T16:13:17.961Z,22.30
2017-11-14T16:15:50.695Z,25.60
2017-11-14T16:18:23.308Z,27.60
2017-11-14T16:20:55.926Z,23.50
2017-11-14T16:23:28.473Z,27.30
2017-11-14T16:26:01.796Z,29.33
2017-11-14T16:28:34.330Z,27.37
2017-11-14T16:31:06.874Z,29.40
2017-11-14T16:33:39.419Z,28.07
2017-11-14T16:36:11.967Z,29.40
2017-11-14T16:38:44.497Z,29.63
2017-11-14T16:41:17.307Z,30.20
2017-11-14T16:43:49.984Z,32.33
2017-11-14T16:46:22.696Z,30.80
2017-11-14T16:48:56.015Z,35.03
2017-11-14T16:51:28.565Z,28.90
2017-11-14T16:54:01.884Z,36.93
2017-11-14T16:56:34.435Z,36.00
2017-11-14T16:59:07.732Z,33.57
2017-11-14T17:01:41.066Z,35.80
2017-11-14T17:04:13.590Z,30.03
2017-11-14T17:06:47.685Z,34.77
2017-11-14T17:09:20.393Z,39.00
2017-11-14T17:11:53.777Z,36.47
2017-11-14T17:14:27.199Z,27.40
2017-11-14T17:16:59.761Z,33.90
2017-11-14T17:19:33.062Z,35.30
2017-11-14T17:22:05.690Z,25.03
2017-11-14T17:24:38.257Z,32.27
2017-11-14T17:27:10.860Z,33.70
2017-11-14T17:29:43.399Z,35.17
2017-11-14T17:32:16.074Z,37.33
2017-11-14T17:34:48.722Z,41.93
2017-11-14T17:37:22.074Z,33.90
2017-11-14T17:39:54.636Z,34.40
2017-11-14T17:42:27.289Z,37.37
2017-11-14T17:44:59.810Z,33.00
2017-11-14T17:47:32.356Z,44.67
2017-11-14T17:50:04.879Z,37.10
2017-11-14T17:52:38.204Z,31.50
2017-11-14T17:55:10.756Z,51.17
2017-11-14T17:57:44.074Z,48.90
2017-11-14T18:00:16.821Z,41.50
2017-11-14T18:02:50.245Z,43.67
2017-11-14T18:05:22.833Z,44.20
2017-11-14T18:07:55.412Z,36.80
2017-11-14T18:10:28.006Z,45.67
2017-11-14T18:13:00.577Z,42.70
2017-11-14T18:15:33.097Z,43.37
2017-11-14T18:18:05.647Z,42.77
2017-11-14T18:20:38.201Z,54.07
2017-11-14T18:23:11.016Z,36.80
2017-11-14T18:25:43.538Z,44.73
2017-11-14T18:28:17.144Z,40.87
2017-11-14T18:30:50.211Z,55.53
2017-11-14T18:33:22.869Z,45.50
2017-11-14T18:35:56.331Z,46.30
2017-11-14T18:38:30.653Z,42.63
2017-11-14T18:41:03.987Z,43.73
2017-11-14T18:43:36.578Z,40.33
2017-11-14T18:46:09.137Z,50.70
2017-11-14T18:48:42.453Z,47.40
2017-11-14T18:51:15.845Z,44.80
2017-11-14T18:53:48.607Z,46.73
2017-11-14T18:56:22.076Z,54.10
2017-11-14T18:58:54.666Z,48.73
2017-11-14T19:01:27.337Z,46.70
2017-11-14T19:04:00.674Z,43.90
2017-11-14T19:06:33.959Z,37.83
2017-11-14T19:09:07.321Z,46.60
2017-11-14T19:11:39.847Z,38.07
2017-11-14T19:14:12.402Z,45.20
2017-11-14T19:16:45.722Z,51.10
2017-11-14T19:19:18.383Z,37.47
2017-11-14T19:21:50.968Z,54.47
2017-11-14T19:24:23.551Z,64.33
2017-11-14T19:26:56.129Z,56.43
2017-11-14T19:29:28.741Z,46.00
2017-11-14T19:32:01.300Z,46.57
2017-11-14T19:34:33.876Z,50.10
2017-11-14T19:37:06.415Z,64.00
2017-11-14T19:39:39.759Z,54.10
2017-11-14T19:42:12.296Z,61.03
2017-11-14T19:44:44.862Z,46.03
2017-11-14T19:47:18.242Z,73.67
2017-11-14T19:49:50.839Z,58.07
2017-11-14T19:52:24.162Z,42.63
2017-11-14T19:54:56.749Z,49.93
2017-11-14T19:57:29.495Z,50.20
2017-11-14T20:00:02.043Z,54.77
2017-11-14T20:02:34.569Z,44.33
2017-11-14T20:05:07.152Z,50.53
2017-11-14T20:07:39.673Z,51.03
2017-11-14T20:10:12.248Z,90.30
2017-11-14T20:12:45.607Z,47.20
2017-11-14T20:15:18.245Z,50.10
2017-11-14T20:17:50.858Z,51.17
2017-11-14T20:20:23.496Z,71.70
2017-11-14T20:22:56.821Z,56.73
2017-11-14T20:25:29.395Z,44.63
2017-11-14T20:28:01.915Z,61.07
2017-11-14T20:30:34.467Z,53.33
2017-11-14T20:33:07.003Z,55.10
2017-11-14T20:35:39.571Z,54.10
2017-11-14T20:38:12.890Z,50.87
2017-11-14T20:40:45.438Z,53.27
2017-11-14T20:43:18.099Z,60.70
2017-11-14T20:45:50.717Z,51.60
2017-11-14T20:48:23.289Z,52.97
2017-11-14T20:50:55.843Z,57.57
2017-11-14T20:53:29.138Z,69.97
2017-11-14T20:56:02.442Z,68.37
2017-11-14T20:58:35.743Z,61.03
2017-11-14T21:01:08.347Z,57.53
2017-11-14T21:03:40.888Z,45.73
2017-11-14T21:06:14.210Z,68.80
2017-11-14T21:08:46.805Z,48.50
2017-11-14T21:11:19.423Z,53.30
2017-11-14T21:13:52.749Z,50.63
2017-11-14T21:16:25.349Z,52.20
2017-11-14T21:18:57.916Z,55.23
2017-11-14T21:21:30.535Z,57.03
2017-11-14T21:24:03.080Z,51.10
2017-11-14T21:26:35.646Z,49.90
2017-11-14T21:29:08.186Z,55.53
2017-11-14T21:31:41.505Z,45.80
2017-11-14T21:34:14.034Z,51.40
2017-11-14T21:36:46.681Z,63.07
2017-11-14T21:39:19.340Z,55.20
2017-11-14T21:41:51.974Z,58.77
2017-11-14T21:44:24.529Z,64.57
2017-11-14T21:46:57.110Z,87.23
2017-11-14T21:49:29.650Z,64.97
2017-11-14T21:52:02.218Z,62.73
2017-11-14T21:54:34.747Z,62.57
2017-11-14T21:57:07.309Z,58.17
2017-11-14T21:59:39.846Z,101.77
2017-11-14T22:02:12.415Z,55.57
2017-11-14T22:04:44.937Z,65.87
2017-11-14T22:07:17.480Z,76.87
2017-11-14T22:09:50.028Z,66.43
2017-11-14T22:12:23.364Z,61.30
2017-11-14T22:14:56.009Z,76.07
2017-11-14T22:17:28.791Z,68.00
2017-11-14T22:20:01.389Z,70.93
2017-11-14T22:22:33.980Z,69.73
2017-11-14T22:25:06.534Z,71.03
2017-11-14T22:27:39.074Z,86.77
2017-11-14T22:30:12.367Z,83.80
2017-11-14T22:32:45.662Z,67.80
2017-11-14T22:35:19.021Z,110.63
2017-11-14T22:37:51.581Z,117.43
2017-11-14T22:40:24.222Z,108.93
2017-11-14T22:42:59.934Z,56.17
2017-11-14T22:45:32.513Z,83.07
2017-11-14T22:48:05.130Z,84.13
2017-11-14T22:50:37.732Z,69.37
2017-11-14T22:53:10.296Z,94.97
2017-11-14T22:55:42.835Z,83.10
2017-11-14T22:58:15.389Z,198.93
2017-11-14T23:00:47.932Z,105.20
2017-11-14T23:03:20.589Z,126.77
2017-11-14T23:05:53.132Z,106.37
2017-11-14T23:08:25.859Z,199.30
2017-11-14T23:10:58.663Z,105.80
2017-11-14T23:13:31.278Z,87.77
2017-11-14T23:16:03.827Z,89.73
2017-11-14T23:18:36.403Z,123.43
2017-11-14T23:21:08.954Z,124.37
2017-11-14T23:23:41.523Z,211.67
2017-11-14T23:26:14.058Z,98.87
2017-11-14T23:28:46.618Z,91.40
2017-11-14T23:31:19.157Z,128.10
2017-11-14T23:33:51.712Z,82.43
2017-11-14T23:36:24.243Z,86.43
2017-11-14T23:38:56.840Z,130.77
2017-11-14T23:41:29.486Z,95.33
2017-11-14T23:44:02.109Z,113.43
2017-11-14T23:46:35.428Z,80.37
2017-11-14T23:49:07.985Z,90.43
2017-11-14T23:51:41.279Z,72.40
2017-11-14T23:54:14.599Z,108.63
2017-11-14T23:56:47.136Z,240.57
2017-11-14T23:59:20.460Z,105.23
